Time;durP1;ratioP1;P1;durP2;ratioP2;P2;SDS_P1;SDS_P2;PMS_P1;PMS_P2;Temp;Humidity;BMP_temperature;BMP_pressure;BME280_temperature;BME280_humidity;BME280_pressure;Samples;Min_cycle;Max_cycle;Signal;HPM_P1;HPM_P2
2022/05/14 00:01:10;;;;;;;32.00;29.77;;;;;;;;;;5047312;28;20419;-86
2022/05/14 00:03:39;;;;;;;30.07;28.03;;;;;;;;;;5035743;28;20431;-86
2022/05/14 00:06:09;;;;;;;31.57;29.40;;;;;;;;;;5035558;28;20952;-86
2022/05/14 00:08:39;;;;;;;30.93;28.57;;;;;;;;;;5035744;28;20418;-86
2022/05/14 00:14:03;;;;;;;30.97;28.80;;;;;;;;;;4993939;28;20516;-86
2022/05/14 00:16:31;;;;;;;32.53;29.60;;;;;;;;;;4994005;28;20477;-86
2022/05/14 00:18:59;;;;;;;32.07;29.87;;;;;;;;;;4993904;28;20549;-86
2022/05/14 00:21:26;;;;;;;31.87;29.63;;;;;;;;;;4993948;28;20567;-87
2022/05/14 00:23:55;;;;;;;30.27;28.07;;;;;;;;;;4994032;28;20947;-85
2022/05/14 00:26:23;;;;;;;30.93;28.83;;;;;;;;;;4994191;28;20428;-86
2022/05/14 00:28:50;;;;;;;31.93;29.40;;;;;;;;;;4993942;28;20432;-86
2022/05/14 00:31:18;;;;;;;34.43;31.73;;;;;;;;;;4995396;28;20455;-86
2022/05/14 00:33:46;;;;;;;32.60;30.20;;;;;;;;;;4997027;28;20468;-87
2022/05/14 00:36:15;;;;;;;32.53;30.13;;;;;;;;;;4996573;28;20978;-86
2022/05/14 00:38:42;;;;;;;33.73;31.30;;;;;;;;;;4994625;28;20428;-86
2022/05/14 00:41:11;;;;;;;33.27;30.87;;;;;;;;;;4993767;28;20439;-85
2022/05/14 00:43:49;;;;;;;32.17;29.87;;;;;;;;;;4993532;28;20462;-86
2022/05/14 00:46:18;;;;;;;32.67;29.73;;;;;;;;;;4994032;28;20871;-86
2022/05/14 00:48:46;;;;;;;31.77;29.57;;;;;;;;;;4996660;28;20437;-86
2022/05/14 00:51:16;;;;;;;32.33;29.83;;;;;;;;;;5035304;28;20437;-87
2022/05/14 00:53:45;;;;;;;32.87;30.27;;;;;;;;;;5034410;28;20407;-86
2022/05/14 00:56:15;;;;;;;31.63;29.43;;;;;;;;;;5034667;28;20411;-86
2022/05/14 00:58:45;;;;;;;33.93;31.17;;;;;;;;;;5033158;28;20469;-86
2022/05/14 01:01:13;;;;;;;33.67;31.03;;;;;;;;;;5034440;28;20914;-86
2022/05/14 01:03:40;;;;;;;32.10;29.60;;;;;;;;;;5034050;28;20910;-86
2022/05/14 01:06:10;;;;;;;30.77;28.43;;;;;;;;;;5033305;28;20514;-86
2022/05/14 01:08:37;;;;;;;32.73;30.20;;;;;;;;;;5034347;28;20794;-85
2022/05/14 01:11:05;;;;;;;32.40;30.00;;;;;;;;;;5034237;28;20428;-85
2022/05/14 01:13:34;;;;;;;32.10;29.90;;;;;;;;;;5034203;28;20423;-86
2022/05/14 01:16:02;;;;;;;33.17;30.47;;;;;;;;;;5016693;28;20447;-85
2022/05/14 01:18:30;;;;;;;31.27;29.07;;;;;;;;;;5034039;28;20458;-87
2022/05/14 01:20:59;;;;;;;34.03;30.97;;;;;;;;;;5033844;28;20804;-86
2022/05/14 01:23:33;;;;;;;31.00;28.90;;;;;;;;;;5033719;28;20506;-86
2022/05/14 01:26:28;;;;;;;31.43;29.13;;;;;;;;;;5034444;28;20413;-86
2022/05/14 01:28:56;;;;;;;31.47;29.37;;;;;;;;;;5033874;28;20892;-86
2022/05/14 01:31:23;;;;;;;31.97;29.77;;;;;;;;;;5034101;28;20468;-86
2022/05/14 01:33:51;;;;;;;31.93;29.47;;;;;;;;;;5033495;28;20440;-86
2022/05/14 01:36:18;;;;;;;33.30;30.70;;;;;;;;;;5033928;28;20427;-86
2022/05/14 01:38:46;;;;;;;31.43;29.13;;;;;;;;;;5033464;28;20906;-85
2022/05/14 01:41:15;;;;;;;31.50;29.40;;;;;;;;;;5033703;28;20440;-86
2022/05/14 01:43:42;;;;;;;31.00;28.70;;;;;;;;;;5033941;28;20426;-86
2022/05/14 01:46:10;;;;;;;30.73;28.53;;;;;;;;;;5033803;28;20442;-86
2022/05/14 01:48:37;;;;;;;31.87;29.50;;;;;;;;;;5033545;28;20423;-85
2022/05/14 01:51:05;;;;;;;31.00;28.63;;;;;;;;;;5032719;28;20510;-86
2022/05/14 01:53:32;;;;;;;31.90;29.57;;;;;;;;;;5033503;28;20426;-86
2022/05/14 01:56:00;;;;;;;32.00;29.40;;;;;;;;;;5033262;28;20476;-85
2022/05/14 01:58:38;;;;;;;32.20;29.87;;;;;;;;;;5033443;28;20483;-86
2022/05/14 02:01:09;;;;;;;32.47;30.07;;;;;;;;;;5017317;28;20426;-85
2022/05/14 02:03:37;;;;;;;32.70;30.10;;;;;;;;;;5033409;28;20460;-86
2022/05/14 02:06:04;;;;;;;33.67;31.17;;;;;;;;;;5033303;28;20490;-86
2022/05/14 02:08:32;;;;;;;32.30;29.83;;;;;;;;;;5033314;28;20418;-85
2022/05/14 02:11:00;;;;;;;34.40;31.70;;;;;;;;;;5033519;28;20443;-86
2022/05/14 02:13:28;;;;;;;33.00;30.50;;;;;;;;;;5033442;28;20483;-84
2022/05/14 02:15:56;;;;;;;33.00;30.63;;;;;;;;;;5033954;28;20415;-86
2022/05/14 02:18:23;;;;;;;34.80;32.37;;;;;;;;;;5033975;28;20883;-85
2022/05/14 02:20:51;;;;;;;33.40;30.70;;;;;;;;;;5032792;28;20450;-86
2022/05/14 02:23:18;;;;;;;33.20;30.77;;;;;;;;;;5033133;28;20438;-86
2022/05/14 02:25:46;;;;;;;34.40;31.90;;;;;;;;;;5033315;28;20418;-85
2022/05/14 02:28:13;;;;;;;33.50;30.80;;;;;;;;;;5033322;28;20873;-86
2022/05/14 02:30:43;;;;;;;33.03;30.63;;;;;;;;;;5033250;28;20444;-86
2022/05/14 02:33:10;;;;;;;32.83;30.50;;;;;;;;;;5033166;28;20411;-86
2022/05/14 02:35:38;;;;;;;32.60;30.00;;;;;;;;;;5034941;28;20839;-86
2022/05/14 02:38:05;;;;;;;33.30;30.80;;;;;;;;;;5036671;28;20488;-86
2022/05/14 02:40:33;;;;;;;34.73;31.83;;;;;;;;;;5036949;28;20415;-86
2022/05/14 02:43:00;;;;;;;34.43;31.80;;;;;;;;;;5036757;28;20773;-85
2022/05/14 02:45:27;;;;;;;32.57;30.10;;;;;;;;;;5036721;28;20824;-86
2022/05/14 02:47:56;;;;;;;33.30;30.80;;;;;;;;;;5036434;28;20876;-85
2022/05/14 02:50:24;;;;;;;33.17;30.53;;;;;;;;;;5036730;28;20471;-85
2022/05/14 02:52:51;;;;;;;32.60;30.20;;;;;;;;;;5036853;28;20440;-86
2022/05/14 02:55:19;;;;;;;33.40;30.87;;;;;;;;;;5036642;28;20471;-86
2022/05/14 02:57:46;;;;;;;34.37;31.57;;;;;;;;;;5036310;28;20495;-84
2022/05/14 03:00:16;;;;;;;33.33;30.80;;;;;;;;;;5036492;28;20802;-86
2022/05/14 03:02:43;;;;;;;32.70;30.20;;;;;;;;;;5036574;28;20466;-86
2022/05/14 03:05:14;;;;;;;33.57;30.97;;;;;;;;;;5036248;28;20453;-85
2022/05/14 03:07:41;;;;;;;35.60;32.60;;;;;;;;;;5036337;28;20467;-85
2022/05/14 03:10:09;;;;;;;32.87;30.47;;;;;;;;;;5035318;28;20454;-86
2022/05/14 03:12:37;;;;;;;32.50;29.80;;;;;;;;;;5036459;28;20428;-85
2022/05/14 03:15:06;;;;;;;35.10;32.30;;;;;;;;;;5036275;28;20436;-85
2022/05/14 03:17:34;;;;;;;34.40;31.30;;;;;;;;;;5036626;28;20491;-86
2022/05/14 03:20:06;;;;;;;32.17;29.87;;;;;;;;;;5036574;28;20885;-86
2022/05/14 03:22:35;;;;;;;32.10;29.80;;;;;;;;;;5037011;28;20884;-86
2022/05/14 03:25:02;;;;;;;32.60;30.10;;;;;;;;;;5037886;28;20493;-86
2022/05/14 03:27:30;;;;;;;34.80;32.00;;;;;;;;;;5035014;28;20496;-86
2022/05/14 03:29:57;;;;;;;33.73;30.83;;;;;;;;;;5036160;28;20415;-86
2022/05/14 03:32:26;;;;;;;33.43;30.73;;;;;;;;;;5035711;28;20904;-86
2022/05/14 03:34:54;;;;;;;32.60;30.20;;;;;;;;;;5036028;28;20525;-86
2022/05/14 03:37:23;;;;;;;32.27;29.77;;;;;;;;;;5035766;28;20993;-86
2022/05/14 03:39:52;;;;;;;33.10;30.40;;;;;;;;;;5035195;28;20458;-85
2022/05/14 03:42:19;;;;;;;32.97;30.57;;;;;;;;;;5035468;28;20814;-84
2022/05/14 03:44:48;;;;;;;31.90;29.50;;;;;;;;;;5034838;28;20952;-84
2022/05/14 03:47:16;;;;;;;33.43;30.70;;;;;;;;;;5035002;28;20406;-84
2022/05/14 03:49:43;;;;;;;32.47;30.17;;;;;;;;;;5035127;28;20446;-84
2022/05/14 03:52:11;;;;;;;34.40;31.40;;;;;;;;;;5035178;28;20445;-85
2022/05/14 03:54:38;;;;;;;34.67;31.87;;;;;;;;;;5034993;28;20447;-84
2022/05/14 03:57:07;;;;;;;32.17;29.80;;;;;;;;;;5035110;28;20571;-85
2022/05/14 03:59:35;;;;;;;29.97;27.77;;;;;;;;;;5034902;28;20406;-85
2022/05/14 04:02:02;;;;;;;33.27;30.40;;;;;;;;;;5034978;28;20459;-84
2022/05/14 04:04:30;;;;;;;32.53;30.03;;;;;;;;;;5034719;28;20475;-85
2022/05/14 04:06:57;;;;;;;32.87;30.37;;;;;;;;;;5034817;28;20462;-85
2022/05/14 04:09:25;;;;;;;31.30;28.60;;;;;;;;;;5035163;28;20423;-85
2022/05/14 04:11:53;;;;;;;32.50;29.60;;;;;;;;;;5034806;28;20460;-84
2022/05/14 04:14:22;;;;;;;33.10;30.60;;;;;;;;;;5034893;28;20471;-85
2022/05/14 04:16:50;;;;;;;33.10;30.40;;;;;;;;;;5034853;28;20445;-84
2022/05/14 04:19:19;;;;;;;30.70;28.40;;;;;;;;;;5034714;28;20490;-85
2022/05/14 04:21:46;;;;;;;32.47;29.67;;;;;;;;;;5034347;28;20463;-83
2022/05/14 04:24:14;;;;;;;30.70;28.40;;;;;;;;;;5035077;28;20434;-84
2022/05/14 04:26:41;;;;;;;32.40;29.70;;;;;;;;;;5034743;28;20419;-85
2022/05/14 04:29:09;;;;;;;31.93;29.33;;;;;;;;;;5034517;28;20431;-85
2022/05/14 04:31:39;;;;;;;33.87;31.13;;;;;;;;;;5034756;28;20460;-84
2022/05/14 04:34:07;;;;;;;32.80;30.20;;;;;;;;;;5034291;28;20479;-84
2022/05/14 04:36:35;;;;;;;30.40;28.30;;;;;;;;;;5034807;28;20502;-85
2022/05/14 04:39:02;;;;;;;34.90;32.20;;;;;;;;;;5034779;28;20511;-84
2022/05/14 04:41:30;;;;;;;32.30;29.80;;;;;;;;;;5034320;28;20426;-84
2022/05/14 04:43:58;;;;;;;31.87;29.60;;;;;;;;;;5034409;28;20476;-84
2022/05/14 04:46:25;;;;;;;32.17;29.67;;;;;;;;;;5034695;28;20491;-84
2022/05/14 04:48:54;;;;;;;31.20;28.83;;;;;;;;;;5034658;28;20444;-84
2022/05/14 04:51:22;;;;;;;31.40;29.03;;;;;;;;;;5034431;28;20450;-84
2022/05/14 04:53:49;;;;;;;32.50;30.30;;;;;;;;;;5034560;28;20443;-84
2022/05/14 04:56:17;;;;;;;31.50;29.10;;;;;;;;;;5034608;28;20418;-84
2022/05/14 04:58:44;;;;;;;31.47;29.13;;;;;;;;;;5033345;28;20467;-84
2022/05/14 05:01:11;;;;;;;31.70;29.40;;;;;;;;;;5034042;28;20459;-84
2022/05/14 05:03:37;;;;;;;33.03;30.30;;;;;;;;;;5033826;28;20440;-85
2022/05/14 05:06:08;;;;;;;31.37;28.97;;;;;;;;;;5034015;28;20477;-85
2022/05/14 05:08:36;;;;;;;32.60;29.73;;;;;;;;;;5033715;28;20533;-84
2022/05/14 05:11:03;;;;;;;29.30;27.20;;;;;;;;;;5034071;28;20445;-84
2022/05/14 05:13:31;;;;;;;30.53;28.33;;;;;;;;;;5033887;28;20464;-84
2022/05/14 05:15:59;;;;;;;30.07;27.50;;;;;;;;;;5033857;28;20436;-84
2022/05/14 05:18:26;;;;;;;31.90;29.20;;;;;;;;;;5033643;28;20442;-84
2022/05/14 05:20:55;;;;;;;31.03;28.60;;;;;;;;;;5033597;28;20469;-85
2022/05/14 05:23:25;;;;;;;30.30;28.10;;;;;;;;;;5033620;28;20436;-85
2022/05/14 05:25:53;;;;;;;29.23;27.23;;;;;;;;;;5033985;28;20460;-85
2022/05/14 05:28:20;;;;;;;28.97;26.70;;;;;;;;;;5033612;28;20886;-85
2022/05/14 05:30:48;;;;;;;28.63;26.20;;;;;;;;;;5033877;28;20419;-84
2022/05/14 05:33:16;;;;;;;27.47;25.23;;;;;;;;;;5033523;28;20430;-84
2022/05/14 05:35:44;;;;;;;25.80;23.60;;;;;;;;;;5033740;28;20760;-85
2022/05/14 05:38:11;;;;;;;25.13;23.43;;;;;;;;;;5033142;28;20503;-85
2022/05/14 05:40:40;;;;;;;26.23;24.00;;;;;;;;;;5033833;28;20852;-84
2022/05/14 05:43:08;;;;;;;24.53;22.87;;;;;;;;;;5033655;28;20813;-84
2022/05/14 05:45:36;;;;;;;26.40;24.53;;;;;;;;;;5033793;28;20526;-85
2022/05/14 05:48:03;;;;;;;26.30;24.17;;;;;;;;;;5033706;28;20482;-84
2022/05/14 05:50:31;;;;;;;24.33;22.73;;;;;;;;;;5032903;28;20427;-84
2022/05/14 05:52:59;;;;;;;25.43;23.43;;;;;;;;;;5033383;28;20514;-85
2022/05/14 05:58:12;;;;;;;24.17;22.23;;;;;;;;;;5033346;28;20478;-85
2022/05/14 06:00:40;;;;;;;25.03;23.13;;;;;;;;;;5033182;28;20449;-84
2022/05/14 06:03:07;;;;;;;23.50;22.00;;;;;;;;;;5033231;28;20444;-85
2022/05/14 06:05:35;;;;;;;24.97;23.37;;;;;;;;;;5033056;28;20452;-84
2022/05/14 06:08:07;;;;;;;25.10;23.23;;;;;;;;;;5032739;28;20436;-84
2022/05/14 06:10:34;;;;;;;24.10;22.60;;;;;;;;;;5036341;28;20904;-85
2022/05/14 06:13:02;;;;;;;24.30;22.50;;;;;;;;;;5035890;28;20434;-84
2022/05/14 06:15:31;;;;;;;23.73;21.93;;;;;;;;;;5036792;28;20428;-84
2022/05/14 06:18:01;;;;;;;22.87;21.37;;;;;;;;;;5037078;28;20428;-84
2022/05/14 06:20:29;;;;;;;22.17;20.77;;;;;;;;;;5036695;28;20567;-84
2022/05/14 06:22:56;;;;;;;22.77;21.40;;;;;;;;;;5036700;28;20898;-85
2022/05/14 06:25:24;;;;;;;22.07;20.67;;;;;;;;;;5037066;28;20422;-84
2022/05/14 06:27:51;;;;;;;23.80;20.57;;;;;;;;;;5036876;28;20888;-84
2022/05/14 06:30:19;;;;;;;22.70;20.63;;;;;;;;;;5036561;28;20407;-85
2022/05/14 06:32:47;;;;;;;22.27;20.63;;;;;;;;;;5036844;28;20456;-84
2022/05/14 06:35:15;;;;;;;22.83;21.30;;;;;;;;;;5036594;28;20758;-85
2022/05/14 06:37:42;;;;;;;22.47;20.57;;;;;;;;;;5036432;28;20423;-84
2022/05/14 06:40:10;;;;;;;20.97;19.57;;;;;;;;;;5036488;28;20478;-84
2022/05/14 06:42:37;;;;;;;22.10;20.80;;;;;;;;;;5036705;28;20780;-84
2022/05/14 06:45:07;;;;;;;21.73;20.33;;;;;;;;;;5037809;28;20458;-85
2022/05/14 06:47:34;;;;;;;21.50;20.20;;;;;;;;;;5054606;28;20448;-85
2022/05/14 06:50:03;;;;;;;22.20;20.60;;;;;;;;;;5048859;28;20449;-85
2022/05/14 06:52:30;;;;;;;22.50;20.97;;;;;;;;;;5037758;28;20460;-85
2022/05/14 06:54:59;;;;;;;22.67;21.10;;;;;;;;;;5036598;28;20455;-85
2022/05/14 06:57:26;;;;;;;22.67;21.17;;;;;;;;;;5036745;28;20485;-84
2022/05/14 06:59:53;;;;;;;22.20;20.33;;;;;;;;;;5036490;28;20462;-84
2022/05/14 07:02:21;;;;;;;23.63;21.60;;;;;;;;;;5036066;28;20467;-85
2022/05/14 07:07:44;;;;;;;23.83;21.73;;;;;;;;;;5013479;28;20859;-85
2022/05/14 07:10:13;;;;;;;23.37;21.77;;;;;;;;;;4975005;28;20465;-85
2022/05/14 07:12:40;;;;;;;24.10;22.07;;;;;;;;;;4975333;28;20438;-85
2022/05/14 07:15:08;;;;;;;23.97;22.07;;;;;;;;;;4959125;28;20442;-85
2022/05/14 07:17:36;;;;;;;25.20;22.67;;;;;;;;;;4975131;28;20449;-85
2022/05/14 07:20:03;;;;;;;22.17;20.63;;;;;;;;;;4974759;28;20502;-84
2022/05/14 07:22:31;;;;;;;22.57;20.77;;;;;;;;;;4974596;28;20426;-85
2022/05/14 07:24:58;;;;;;;23.20;21.63;;;;;;;;;;4975249;28;20484;-84
2022/05/14 07:27:27;;;;;;;24.83;22.93;;;;;;;;;;4975476;28;20429;-85
2022/05/14 07:29:54;;;;;;;24.40;22.50;;;;;;;;;;4959075;28;20440;-85
2022/05/14 07:32:22;;;;;;;23.77;22.00;;;;;;;;;;4975140;28;20426;-85
2022/05/14 07:34:49;;;;;;;25.20;22.87;;;;;;;;;;4974827;28;20425;-85
2022/05/14 07:37:19;;;;;;;23.67;21.90;;;;;;;;;;4974616;28;20808;-83
2022/05/14 07:39:48;;;;;;;24.70;23.10;;;;;;;;;;4974505;28;21064;-85
2022/05/14 07:42:19;;;;;;;25.00;23.10;;;;;;;;;;4974401;28;20863;-84
2022/05/14 07:44:50;;;;;;;24.43;22.43;;;;;;;;;;4974557;28;20529;-83
2022/05/14 07:47:17;;;;;;;26.47;24.07;;;;;;;;;;4999784;28;20788;-84
2022/05/14 07:49:46;;;;;;;23.40;21.70;;;;;;;;;;5035451;28;20415;-85
2022/05/14 07:52:15;;;;;;;24.73;22.77;;;;;;;;;;5035229;28;20436;-81
2022/05/14 07:54:42;;;;;;;25.17;23.27;;;;;;;;;;5034723;28;20447;-84
2022/05/14 07:57:10;;;;;;;23.97;22.17;;;;;;;;;;5017758;28;20416;-84
2022/05/14 07:59:38;;;;;;;24.43;22.80;;;;;;;;;;5034880;28;20470;-84
2022/05/14 08:02:09;;;;;;;24.07;22.47;;;;;;;;;;5035414;28;20419;-84
2022/05/14 08:04:40;;;;;;;24.53;22.43;;;;;;;;;;5034959;28;21113;-84
2022/05/14 08:07:08;;;;;;;25.20;23.20;;;;;;;;;;5035092;28;20440;-84
2022/05/14 08:09:36;;;;;;;25.67;23.37;;;;;;;;;;5035138;28;20423;-84
2022/05/14 08:12:03;;;;;;;25.37;23.37;;;;;;;;;;5026825;28;20437;-84
2022/05/14 08:14:31;;;;;;;24.87;22.80;;;;;;;;;;5034755;28;20418;-84
2022/05/14 08:16:58;;;;;;;23.63;21.70;;;;;;;;;;5034804;28;20448;-85
2022/05/14 08:19:27;;;;;;;26.70;24.40;;;;;;;;;;5034616;28;20837;-84
2022/05/14 08:24:39;;;;;;;25.00;23.00;;;;;;;;;;5034838;28;20403;-85
2022/05/14 08:27:08;;;;;;;24.30;22.40;;;;;;;;;;5034659;28;20415;-84
2022/05/14 08:29:35;;;;;;;24.33;22.60;;;;;;;;;;5033256;28;20427;-84
2022/05/14 08:32:03;;;;;;;25.07;23.30;;;;;;;;;;5034266;28;20451;-85
2022/05/14 08:34:32;;;;;;;26.80;24.50;;;;;;;;;;5033418;28;20447;-85
2022/05/14 08:37:00;;;;;;;25.57;23.47;;;;;;;;;;5032461;28;20428;-84
2022/05/14 08:39:28;;;;;;;25.33;23.23;;;;;;;;;;5034266;28;20546;-84
2022/05/14 08:41:56;;;;;;;26.07;24.20;;;;;;;;;;5034200;28;20430;-84
2022/05/14 08:44:30;;;;;;;26.00;24.10;;;;;;;;;;5034335;28;20444;-84
2022/05/14 08:46:58;;;;;;;24.40;22.27;;;;;;;;;;5034405;28;20415;-84
2022/05/14 08:49:31;;;;;;;26.33;24.53;;;;;;;;;;5034006;28;20436;-85
2022/05/14 08:52:00;;;;;;;25.40;23.57;;;;;;;;;;5034727;28;20808;-85
2022/05/14 08:54:28;;;;;;;24.87;22.90;;;;;;;;;;5034058;28;20485;-84
2022/05/14 08:56:59;;;;;;;27.47;25.17;;;;;;;;;;5034364;28;20460;-85
2022/05/14 08:59:39;;;;;;;25.87;23.87;;;;;;;;;;5034241;28;20496;-85
2022/05/14 09:02:09;;;;;;;24.93;23.33;;;;;;;;;;5034424;28;20471;-85
2022/05/14 09:04:36;;;;;;;23.97;22.47;;;;;;;;;;5034298;28;20449;-85
2022/05/14 09:07:06;;;;;;;26.43;24.60;;;;;;;;;;5033782;28;20445;-84
2022/05/14 09:09:33;;;;;;;27.77;23.97;;;;;;;;;;5016843;28;20415;-85
2022/05/14 09:12:02;;;;;;;26.70;24.43;;;;;;;;;;5032641;28;20536;-85
2022/05/14 09:14:31;;;;;;;26.57;24.50;;;;;;;;;;5033830;28;20410;-84
2022/05/14 09:17:04;;;;;;;23.67;22.07;;;;;;;;;;5033807;28;20456;-84
2022/05/14 09:19:36;;;;;;;24.23;22.57;;;;;;;;;;5032962;28;20487;-85
2022/05/14 09:22:10;;;;;;;25.90;23.80;;;;;;;;;;5033950;28;20419;-84
2022/05/14 09:24:41;;;;;;;26.17;24.13;;;;;;;;;;5032328;28;20460;-84
2022/05/14 09:27:10;;;;;;;26.03;24.07;;;;;;;;;;5033601;28;20445;-84
2022/05/14 09:29:40;;;;;;;23.87;22.13;;;;;;;;;;5033467;28;20498;-84
2022/05/14 09:32:08;;;;;;;24.43;22.57;;;;;;;;;;5033418;28;20865;-84
2022/05/14 09:34:36;;;;;;;25.00;22.87;;;;;;;;;;5033113;28;20434;-84
2022/05/14 09:37:10;;;;;;;25.03;23.13;;;;;;;;;;5033220;28;20403;-84
2022/05/14 09:39:37;;;;;;;24.53;22.80;;;;;;;;;;5033410;28;20483;-84
2022/05/14 09:42:05;;;;;;;24.70;23.00;;;;;;;;;;5033115;28;20811;-85
2022/05/14 09:44:37;;;;;;;25.23;23.30;;;;;;;;;;5033476;28;20451;-85
2022/05/14 09:47:09;;;;;;;24.20;22.33;;;;;;;;;;5033512;28;20853;-85
2022/05/14 09:49:39;;;;;;;25.77;23.57;;;;;;;;;;5033762;28;20430;-86
2022/05/14 09:52:10;;;;;;;24.60;22.80;;;;;;;;;;5034077;28;20517;-85
2022/05/14 09:54:41;;;;;;;24.10;22.50;;;;;;;;;;5033639;28;20793;-85
2022/05/14 09:57:18;;;;;;;24.70;23.07;;;;;;;;;;5034692;28;20436;-86
2022/05/14 10:00:01;;;;;;;25.90;24.07;;;;;;;;;;5034072;28;20777;-85
2022/05/14 10:02:44;;;;;;;24.13;22.43;;;;;;;;;;5034164;28;20803;-86
2022/05/14 10:05:14;;;;;;;24.90;22.60;;;;;;;;;;5034393;28;20419;-86
2022/05/14 10:07:46;;;;;;;25.77;23.80;;;;;;;;;;5034665;28;20444;-86
2022/05/14 10:10:22;;;;;;;26.90;24.83;;;;;;;;;;5044946;28;20415;-85
2022/05/14 10:12:52;;;;;;;25.83;23.80;;;;;;;;;;5046468;28;20432;-90
2022/05/14 10:15:28;;;;;;;25.17;23.20;;;;;;;;;;5034480;28;20537;-87
2022/05/14 10:17:59;;;;;;;25.13;23.27;;;;;;;;;;5034187;28;20458;-87
2022/05/14 10:20:39;;;;;;;27.20;24.47;;;;;;;;;;5033328;28;20474;-85
2022/05/14 10:28:51;;;;;;;25.47;23.77;;;;;;;;;;5033075;28;20417;-85
2022/05/14 10:31:23;;;;;;;24.57;23.07;;;;;;;;;;5032977;28;20422;-84
2022/05/14 10:33:52;;;;;;;25.20;22.97;;;;;;;;;;5031229;28;20916;-84
2022/05/14 10:36:24;;;;;;;24.00;22.17;;;;;;;;;;5032594;28;20764;-84
2022/05/14 10:38:57;;;;;;;25.17;23.30;;;;;;;;;;5032372;28;20415;-84
2022/05/14 10:41:30;;;;;;;26.63;23.97;;;;;;;;;;5032623;28;20476;-84
2022/05/14 10:43:59;;;;;;;25.20;23.40;;;;;;;;;;5032573;28;20403;-85
2022/05/14 10:46:28;;;;;;;25.07;22.90;;;;;;;;;;5032850;28;20460;-84
2022/05/14 10:48:57;;;;;;;25.03;23.30;;;;;;;;;;5032684;28;20876;-85
2022/05/14 10:51:26;;;;;;;23.90;22.30;;;;;;;;;;5032835;28;20463;-84
2022/05/14 10:53:55;;;;;;;25.37;23.63;;;;;;;;;;5032696;28;20473;-85
2022/05/14 10:56:25;;;;;;;27.40;25.10;;;;;;;;;;5033876;28;20797;-85
2022/05/14 10:58:59;;;;;;;25.40;23.40;;;;;;;;;;5036196;28;20461;-84
2022/05/14 11:01:30;;;;;;;26.17;23.77;;;;;;;;;;5035828;28;20489;-85
2022/05/14 11:03:59;;;;;;;25.00;23.30;;;;;;;;;;5035878;28;20448;-85
2022/05/14 11:06:31;;;;;;;25.77;24.03;;;;;;;;;;5036305;28;20463;-86
2022/05/14 11:09:00;;;;;;;24.43;22.73;;;;;;;;;;5036338;28;20998;-84
2022/05/14 11:11:29;;;;;;;24.33;22.73;;;;;;;;;;5036101;28;20427;-85
2022/05/14 11:13:57;;;;;;;26.40;24.47;;;;;;;;;;5036208;28;20418;-85
2022/05/14 11:16:35;;;;;;;25.63;23.63;;;;;;;;;;5035782;28;20454;-85
2022/05/14 11:19:04;;;;;;;26.23;24.33;;;;;;;;;;5036049;28;20440;-85
2022/05/14 11:21:35;;;;;;;25.30;23.57;;;;;;;;;;5035663;28;20938;-85
2022/05/14 11:24:04;;;;;;;23.87;22.27;;;;;;;;;;5035975;28;20439;-85
2022/05/14 11:26:31;;;;;;;24.83;23.20;;;;;;;;;;5035725;28;20436;-85
2022/05/14 11:29:00;;;;;;;24.87;23.03;;;;;;;;;;5035782;28;20845;-85
2022/05/14 11:31:29;;;;;;;25.13;23.30;;;;;;;;;;5035760;28;20418;-85
2022/05/14 11:33:59;;;;;;;25.13;23.23;;;;;;;;;;5035789;28;20907;-84
2022/05/14 11:36:28;;;;;;;23.77;22.17;;;;;;;;;;5034542;28;20463;-83
2022/05/14 11:39:12;;;;;;;24.87;23.20;;;;;;;;;;5035944;28;20443;-85
2022/05/14 11:41:41;;;;;;;24.90;23.00;;;;;;;;;;5035255;28;20458;-85
2022/05/14 11:44:08;;;;;;;25.03;23.20;;;;;;;;;;5035730;28;20503;-84
2022/05/14 11:46:41;;;;;;;23.50;21.80;;;;;;;;;;5035265;28;20503;-83
2022/05/14 11:49:11;;;;;;;24.30;22.70;;;;;;;;;;5035315;28;20415;-84
2022/05/14 11:51:41;;;;;;;23.90;22.40;;;;;;;;;;5035227;28;20431;-84
2022/05/14 11:54:12;;;;;;;23.53;21.93;;;;;;;;;;5035165;28;20996;-84
2022/05/14 11:56:44;;;;;;;25.03;23.40;;;;;;;;;;5035094;28;20456;-84
2022/05/14 11:59:13;;;;;;;24.80;23.00;;;;;;;;;;5035194;28;20456;-85
2022/05/14 12:01:41;;;;;;;25.00;23.10;;;;;;;;;;5035015;28;20458;-85
2022/05/14 12:04:11;;;;;;;25.13;23.30;;;;;;;;;;5033544;28;20433;-85
2022/05/14 12:06:47;;;;;;;25.30;23.70;;;;;;;;;;5035800;28;20430;-85
2022/05/14 12:09:27;;;;;;;25.10;23.37;;;;;;;;;;5034992;28;20458;-85
2022/05/14 12:12:00;;;;;;;25.17;23.63;;;;;;;;;;5035987;28;20536;-85
2022/05/14 12:14:31;;;;;;;25.30;23.53;;;;;;;;;;5018034;28;20441;-86
2022/05/14 12:17:00;;;;;;;24.33;22.60;;;;;;;;;;5036173;28;20436;-85
2022/05/14 12:19:28;;;;;;;25.13;23.20;;;;;;;;;;5036540;28;20476;-86
2022/05/14 12:21:57;;;;;;;24.40;22.50;;;;;;;;;;5038214;28;20487;-86
2022/05/14 12:24:27;;;;;;;25.00;23.10;;;;;;;;;;5039542;28;20419;-86
2022/05/14 12:26:54;;;;;;;24.00;22.47;;;;;;;;;;5035795;28;20436;-88
2022/05/14 12:29:27;;;;;;;26.13;24.20;;;;;;;;;;5036001;28;20547;-88
2022/05/14 12:34:43;;;;;;;25.20;23.50;;;;;;;;;;5035701;28;20499;-88
2022/05/14 12:37:18;;;;;;;24.60;23.00;;;;;;;;;;5035777;28;20481;-88
2022/05/14 12:39:58;;;;;;;27.20;24.97;;;;;;;;;;5035847;28;20905;-88
2022/05/14 12:42:30;;;;;;;26.67;24.57;;;;;;;;;;5037078;28;20895;-88
2022/05/14 12:44:59;;;;;;;26.80;24.30;;;;;;;;;;5041598;28;20452;-88
2022/05/14 12:47:27;;;;;;;25.07;23.27;;;;;;;;;;5036747;28;20799;-89
2022/05/14 12:49:55;;;;;;;25.30;23.70;;;;;;;;;;5035185;28;20491;-89
2022/05/14 12:52:23;;;;;;;25.83;23.50;;;;;;;;;;5035059;28;20415;-88
2022/05/14 12:54:53;;;;;;;26.23;24.43;;;;;;;;;;5034980;28;20479;-88
2022/05/14 12:57:21;;;;;;;24.17;22.60;;;;;;;;;;5034906;28;20411;-90
2022/05/14 12:59:48;;;;;;;24.43;22.70;;;;;;;;;;5017637;28;20422;-90
2022/05/14 13:02:18;;;;;;;24.97;23.20;;;;;;;;;;5034852;28;20512;-90
2022/05/14 13:04:49;;;;;;;26.57;24.43;;;;;;;;;;5035042;28;20456;-86
2022/05/14 13:07:17;;;;;;;23.73;21.90;;;;;;;;;;5033489;28;20457;-89
2022/05/14 13:09:44;;;;;;;26.03;23.80;;;;;;;;;;5034708;28;20446;-91
2022/05/14 13:12:19;;;;;;;23.67;22.07;;;;;;;;;;5034751;28;21056;-90
2022/05/14 13:14:50;;;;;;;24.80;23.20;;;;;;;;;;5034903;28;20431;-89
2022/05/14 13:17:18;;;;;;;25.10;23.20;;;;;;;;;;5017189;28;20407;-89
2022/05/14 13:19:47;;;;;;;24.83;23.23;;;;;;;;;;5033984;28;20488;-90
2022/05/14 13:22:27;;;;;;;24.37;22.67;;;;;;;;;;5034052;28;20463;-88
2022/05/14 13:24:55;;;;;;;24.70;23.07;;;;;;;;;;5034911;28;20440;-88
2022/05/14 13:27:31;;;;;;;25.80;23.67;;;;;;;;;;5034460;28;20434;-89
2022/05/14 13:30:02;;;;;;;24.83;23.13;;;;;;;;;;5034604;28;20432;-90
2022/05/14 13:32:30;;;;;;;25.03;23.33;;;;;;;;;;5033867;28;20447;-90
2022/05/14 13:37:53;;;;;;;23.70;22.20;;;;;;;;;;5034048;28;20399;-87
2022/05/14 13:40:23;;;;;;;24.50;23.00;;;;;;;;;;5034163;28;20435;-87
2022/05/14 13:42:53;;;;;;;25.90;23.80;;;;;;;;;;5033936;28;20418;-86
2022/05/14 13:45:24;;;;;;;24.30;22.57;;;;;;;;;;5033996;28;20472;-89
2022/05/14 13:47:53;;;;;;;24.70;23.10;;;;;;;;;;5034291;28;20419;-88
2022/05/14 13:50:25;;;;;;;24.63;22.83;;;;;;;;;;5034268;28;20422;-89
2022/05/14 13:52:54;;;;;;;24.33;22.73;;;;;;;;;;5034077;28;20440;-89
2022/05/14 13:55:29;;;;;;;25.17;23.50;;;;;;;;;;5034602;28;20414;-89
2022/05/14 13:58:00;;;;;;;26.27;24.23;;;;;;;;;;5033776;28;20410;-90
2022/05/14 14:00:28;;;;;;;25.73;23.80;;;;;;;;;;5034356;28;20769;-89
2022/05/14 14:03:00;;;;;;;24.27;22.47;;;;;;;;;;5033897;28;20412;-88
2022/05/14 14:05:31;;;;;;;24.90;22.87;;;;;;;;;;5034029;28;20456;-88
2022/05/14 14:07:59;;;;;;;26.80;24.53;;;;;;;;;;5016848;28;20417;-89
2022/05/14 14:10:32;;;;;;;25.37;23.40;;;;;;;;;;5033830;28;20411;-89
2022/05/14 14:13:01;;;;;;;25.40;23.60;;;;;;;;;;5016089;28;20460;-89
2022/05/14 14:15:29;;;;;;;24.87;23.20;;;;;;;;;;5016390;28;20440;-90
2022/05/14 14:17:57;;;;;;;24.40;22.90;;;;;;;;;;5033987;28;20457;-89
2022/05/14 14:20:26;;;;;;;24.83;23.03;;;;;;;;;;5033516;28;20492;-89
2022/05/14 14:22:53;;;;;;;24.40;22.80;;;;;;;;;;5033800;28;20427;-89
2022/05/14 14:25:21;;;;;;;25.67;23.70;;;;;;;;;;5017285;28;20415;-89
2022/05/14 14:27:50;;;;;;;25.47;23.60;;;;;;;;;;5033712;28;20426;-90
2022/05/14 14:30:19;;;;;;;25.30;23.50;;;;;;;;;;5033504;28;20447;-90
2022/05/14 14:32:46;;;;;;;25.07;23.20;;;;;;;;;;5037285;28;20443;-90
2022/05/14 14:35:14;;;;;;;24.57;22.67;;;;;;;;;;5020242;28;20473;-90
2022/05/14 14:37:42;;;;;;;26.13;24.33;;;;;;;;;;5037439;28;20418;-90
2022/05/14 14:40:11;;;;;;;25.43;23.47;;;;;;;;;;5037765;28;20411;-91
2022/05/14 14:42:39;;;;;;;25.90;23.80;;;;;;;;;;5037731;28;20484;-90
2022/05/14 14:45:10;;;;;;;25.17;23.17;;;;;;;;;;5037576;28;20419;-91
2022/05/14 14:47:40;;;;;;;26.00;24.30;;;;;;;;;;5037239;28;20923;-90
2022/05/14 14:50:08;;;;;;;24.97;23.37;;;;;;;;;;5037028;28;20415;-90